createdAt,value
2022-10-18T00:00:50.365Z,18.20
2022-10-18T00:03:17.304Z,18.20
2022-10-18T00:05:44.313Z,18.20
2022-10-18T00:08:11.260Z,18.30
2022-10-18T00:10:38.176Z,18.30
2022-10-18T00:13:05.112Z,18.30
2022-10-18T00:15:32.072Z,18.20
2022-10-18T00:17:59.064Z,18.10
2022-10-18T00:20:26.438Z,18.20
2022-10-18T00:22:53.350Z,18.30
2022-10-18T00:25:20.275Z,18.20
2022-10-18T00:27:47.235Z,18.20
2022-10-18T00:30:14.563Z,18.20
2022-10-18T00:32:42.593Z,18.10
2022-10-18T00:35:09.938Z,18.00
2022-10-18T00:37:36.808Z,18.10
2022-10-18T00:40:05.288Z,18.00
2022-10-18T00:42:35.095Z,17.90
2022-10-18T00:45:14.748Z,17.80
2022-10-18T00:47:44.010Z,17.70
2022-10-18T00:50:11.556Z,17.70
2022-10-18T00:52:42.402Z,17.70
2022-10-18T00:55:10.498Z,17.70
2022-10-18T00:57:39.390Z,17.60
2022-10-18T01:00:09.967Z,17.60
2022-10-18T01:02:38.136Z,17.60
2022-10-18T01:05:06.008Z,17.40
2022-10-18T01:07:47.868Z,17.40
2022-10-18T01:10:46.727Z,17.40
2022-10-18T01:13:35.744Z,17.30
2022-10-18T01:16:08.755Z,17.20
2022-10-18T01:18:48.914Z,17.20
2022-10-18T01:21:45.575Z,17.20
2022-10-18T01:24:54.958Z,17.20
2022-10-18T01:27:35.655Z,17.20
2022-10-18T01:30:39.658Z,17.20
2022-10-18T01:33:18.428Z,17.10
2022-10-18T01:35:52.176Z,17.20
2022-10-18T01:38:21.571Z,17.20
2022-10-18T01:40:50.818Z,17.10
2022-10-18T01:43:20.079Z,17.30
2022-10-18T01:45:47.780Z,17.20
2022-10-18T01:48:15.691Z,17.00
2022-10-18T01:50:42.796Z,16.90
2022-10-18T01:53:24.265Z,16.60
2022-10-18T01:56:13.340Z,16.40
2022-10-18T01:59:06.326Z,16.30
2022-10-18T02:01:39.098Z,16.10
2022-10-18T02:04:32.116Z,16.00
2022-10-18T02:07:26.874Z,16.00
2022-10-18T02:10:09.359Z,15.90
2022-10-18T02:12:41.020Z,15.80
2022-10-18T02:15:10.116Z,15.70
2022-10-18T02:17:39.418Z,15.80
2022-10-18T02:20:08.949Z,15.70
2022-10-18T02:22:37.802Z,15.70
2022-10-18T02:25:10.970Z,15.70
2022-10-18T02:27:38.232Z,15.80
2022-10-18T02:30:06.137Z,15.70
2022-10-18T02:32:39.782Z,15.70
2022-10-18T02:35:45.857Z,15.60
2022-10-18T02:38:15.564Z,15.60
2022-10-18T02:40:42.756Z,15.70
2022-10-18T02:43:09.633Z,15.60
2022-10-18T02:45:36.713Z,15.60
2022-10-18T02:48:03.638Z,15.60
2022-10-18T02:50:30.566Z,15.60
2022-10-18T02:52:57.435Z,15.60
2022-10-18T02:55:24.399Z,15.50
2022-10-18T02:57:51.299Z,15.60
2022-10-18T03:00:18.245Z,15.60
2022-10-18T03:02:45.193Z,15.70
2022-10-18T03:05:12.035Z,15.80
2022-10-18T03:07:38.920Z,15.70
2022-10-18T03:10:06.285Z,15.80
2022-10-18T03:12:33.130Z,15.70
2022-10-18T03:14:59.959Z,15.70
2022-10-18T03:17:27.070Z,15.70
2022-10-18T03:19:54.013Z,15.70
2022-10-18T03:22:20.914Z,15.70
2022-10-18T03:24:47.934Z,15.70
2022-10-18T03:27:14.781Z,15.70
2022-10-18T03:29:41.719Z,15.70
2022-10-18T03:32:08.692Z,15.60
2022-10-18T03:34:35.551Z,15.90
2022-10-18T03:37:04.788Z,15.90
2022-10-18T03:39:32.430Z,15.80
2022-10-18T03:41:59.302Z,15.80
2022-10-18T03:44:26.208Z,15.70
2022-10-18T03:46:53.091Z,15.70
2022-10-18T03:49:20.121Z,15.60
2022-10-18T03:51:47.019Z,15.70
2022-10-18T03:54:13.962Z,15.60
2022-10-18T03:56:40.795Z,15.50
2022-10-18T03:59:07.831Z,15.50
2022-10-18T04:01:34.743Z,15.50
2022-10-18T04:04:01.784Z,15.50
2022-10-18T04:06:28.757Z,15.50
2022-10-18T04:08:56.131Z,15.50
2022-10-18T04:11:23.005Z,15.40
2022-10-18T04:13:50.466Z,15.30
2022-10-18T04:16:17.376Z,15.40
2022-10-18T04:18:44.230Z,15.50
2022-10-18T04:21:11.108Z,15.40
2022-10-18T04:23:38.888Z,15.40
2022-10-18T04:26:06.719Z,15.40
2022-10-18T04:28:34.887Z,15.40
2022-10-18T04:31:01.867Z,15.40
2022-10-18T04:33:28.743Z,15.30
2022-10-18T04:35:55.648Z,15.30
2022-10-18T04:38:22.575Z,15.40
2022-10-18T04:40:49.914Z,15.40
2022-10-18T04:43:16.835Z,15.40
2022-10-18T04:45:46.379Z,15.40
2022-10-18T04:48:13.363Z,15.40
2022-10-18T04:50:40.840Z,15.40
2022-10-18T04:53:07.766Z,15.40
2022-10-18T04:55:34.841Z,15.50
2022-10-18T04:58:01.734Z,15.40
2022-10-18T05:00:28.639Z,15.30
2022-10-18T05:02:58.679Z,15.30
2022-10-18T05:05:43.312Z,15.40
2022-10-18T05:08:13.135Z,15.30
2022-10-18T05:10:40.007Z,15.20
2022-10-18T05:13:07.150Z,15.10
2022-10-18T05:15:34.076Z,15.00
2022-10-18T05:18:00.926Z,14.90
2022-10-18T05:20:27.910Z,14.90
2022-10-18T05:22:54.830Z,15.00
2022-10-18T05:25:21.691Z,14.90
2022-10-18T05:27:48.742Z,14.90
2022-10-18T05:30:15.843Z,14.90
2022-10-18T05:32:42.738Z,15.00
2022-10-18T05:35:09.768Z,14.90
2022-10-18T05:37:36.659Z,15.10
2022-10-18T05:40:04.119Z,15.10
2022-10-18T05:42:31.232Z,15.20
2022-10-18T05:44:58.275Z,15.20
2022-10-18T05:47:25.221Z,15.20
2022-10-18T05:49:52.125Z,15.20
2022-10-18T05:52:19.058Z,15.20
2022-10-18T05:54:45.974Z,15.20
2022-10-18T05:57:12.854Z,15.20
2022-10-18T05:59:39.710Z,15.20
2022-10-18T06:02:07.041Z,15.20
2022-10-18T06:04:34.927Z,15.20
2022-10-18T06:07:01.836Z,15.20
2022-10-18T06:09:30.720Z,15.30
2022-10-18T06:11:57.830Z,15.30
2022-10-18T06:14:24.771Z,15.30
2022-10-18T06:16:51.718Z,15.40
2022-10-18T06:19:18.667Z,15.50
2022-10-18T06:21:45.595Z,15.50
2022-10-18T06:24:12.473Z,15.50
2022-10-18T06:30:26.707Z,15.50
2022-10-18T06:32:53.627Z,15.50
2022-10-18T06:35:20.516Z,15.60
2022-10-18T06:37:47.504Z,15.60
2022-10-18T06:40:14.424Z,15.70
2022-10-18T06:42:41.411Z,15.70
2022-10-18T06:45:08.954Z,15.80
2022-10-18T06:47:35.846Z,15.70
2022-10-18T06:50:02.735Z,15.70
2022-10-18T06:52:29.807Z,15.70
2022-10-18T06:54:58.279Z,15.70
2022-10-18T07:01:15.803Z,15.70
2022-10-18T07:03:43.408Z,15.80
2022-10-18T07:06:12.776Z,15.70
2022-10-18T07:08:40.251Z,15.70
2022-10-18T07:11:08.104Z,15.80
2022-10-18T07:13:35.356Z,15.80
2022-10-18T07:16:06.062Z,15.90
2022-10-18T07:18:34.630Z,15.90
2022-10-18T07:21:03.796Z,15.90
2022-10-18T07:23:33.839Z,16.00
2022-10-18T07:26:01.887Z,16.10
2022-10-18T07:28:29.704Z,16.30
2022-10-18T07:30:57.008Z,16.20
2022-10-18T07:33:25.939Z,16.30
2022-10-18T07:35:52.879Z,16.30
2022-10-18T07:38:19.788Z,16.30
2022-10-18T07:44:33.436Z,16.30
2022-10-18T07:47:00.358Z,16.40
2022-10-18T07:49:27.239Z,16.40
2022-10-18T07:51:54.148Z,16.40
2022-10-18T07:54:22.456Z,16.50
2022-10-18T07:56:49.298Z,16.40
2022-10-18T07:59:16.177Z,16.60
2022-10-18T08:01:43.184Z,16.60
2022-10-18T08:04:16.109Z,16.50
2022-10-18T08:06:43.626Z,16.50
2022-10-18T08:09:10.588Z,16.40
2022-10-18T08:11:37.600Z,16.40
2022-10-18T08:14:04.464Z,16.20
2022-10-18T08:16:34.354Z,16.10
2022-10-18T08:19:01.299Z,16.20
2022-10-18T08:21:28.211Z,16.10
2022-10-18T08:23:55.363Z,16.10
2022-10-18T08:26:23.525Z,16.30
2022-10-18T08:28:54.365Z,16.30
2022-10-18T08:31:30.993Z,16.40
2022-10-18T08:33:58.117Z,16.20
2022-10-18T08:36:25.352Z,16.10
2022-10-18T08:38:52.401Z,16.20
2022-10-18T08:41:26.230Z,16.40
2022-10-18T08:44:19.600Z,16.30
2022-10-18T08:46:49.349Z,16.50
2022-10-18T08:49:28.590Z,16.60
2022-10-18T08:51:57.474Z,16.50
2022-10-18T08:54:30.279Z,16.30
2022-10-18T08:57:00.901Z,16.50
2022-10-18T08:59:37.890Z,16.80
2022-10-18T09:02:25.946Z,17.00
2022-10-18T09:05:08.619Z,17.10
2022-10-18T09:07:54.246Z,17.10
2022-10-18T09:10:46.051Z,17.00
2022-10-18T09:13:27.570Z,16.90
2022-10-18T09:16:04.925Z,17.10
2022-10-18T09:18:54.912Z,17.20
2022-10-18T09:21:36.838Z,17.30
2022-10-18T09:24:13.894Z,17.30
2022-10-18T09:26:55.254Z,17.20
2022-10-18T09:29:33.855Z,17.10
2022-10-18T09:32:25.629Z,17.10
2022-10-18T09:34:54.482Z,17.10
2022-10-18T09:37:23.050Z,17.40
2022-10-18T09:39:51.933Z,17.40
2022-10-18T09:42:29.550Z,17.60
2022-10-18T09:45:16.733Z,17.60
2022-10-18T09:48:08.655Z,17.40
2022-10-18T09:50:59.402Z,17.50
2022-10-18T09:53:47.535Z,17.70
2022-10-18T09:56:41.732Z,17.60
2022-10-18T09:59:53.010Z,17.30
2022-10-18T10:02:24.002Z,17.20
2022-10-18T10:04:51.934Z,17.30
2022-10-18T10:07:24.016Z,17.50
2022-10-18T10:10:19.928Z,17.60
2022-10-18T10:12:47.086Z,17.30
2022-10-18T10:15:23.282Z,17.20
2022-10-18T10:18:28.322Z,17.30
2022-10-18T10:21:01.893Z,17.10
2022-10-18T10:23:55.723Z,17.20
2022-10-18T10:26:24.309Z,17.20
2022-10-18T10:28:51.799Z,17.30
2022-10-18T10:31:24.535Z,17.50
2022-10-18T10:34:03.302Z,17.60
2022-10-18T10:36:31.402Z,17.60
2022-10-18T10:39:13.164Z,17.40
2022-10-18T10:41:41.549Z,17.50
2022-10-18T10:44:19.948Z,17.50
2022-10-18T10:46:48.639Z,17.30
2022-10-18T10:49:41.216Z,17.00
2022-10-18T10:52:27.221Z,17.00
2022-10-18T10:55:23.274Z,17.00
2022-10-18T10:57:52.965Z,17.30
2022-10-18T11:00:40.265Z,17.10
2022-10-18T11:03:29.614Z,17.40
2022-10-18T11:06:02.024Z,17.30
2022-10-18T11:08:36.084Z,17.40
2022-10-18T11:11:41.997Z,17.30
2022-10-18T11:14:29.591Z,17.10
2022-10-18T11:17:08.578Z,17.20
2022-10-18T11:19:53.553Z,16.80
2022-10-18T11:22:24.360Z,16.90
2022-10-18T11:24:51.507Z,17.00
2022-10-18T11:27:42.964Z,17.20
2022-10-18T11:30:15.571Z,17.30
2022-10-18T11:32:54.631Z,17.30
2022-10-18T11:35:50.672Z,17.10
2022-10-18T11:38:17.522Z,17.00
2022-10-18T11:41:02.004Z,16.80
2022-10-18T11:44:00.685Z,16.80
2022-10-18T11:46:32.481Z,16.70
2022-10-18T11:49:13.662Z,16.60
2022-10-18T11:52:07.339Z,16.70
2022-10-18T11:54:53.820Z,16.70
2022-10-18T11:57:29.838Z,16.70
2022-10-18T12:00:18.034Z,16.70
2022-10-18T12:03:15.505Z,16.60
2022-10-18T12:05:46.116Z,16.50
2022-10-18T12:08:20.803Z,16.40
2022-10-18T12:11:07.983Z,16.20
2022-10-18T12:13:43.326Z,16.00
2022-10-18T12:16:12.119Z,15.90
2022-10-18T12:19:01.487Z,15.90
2022-10-18T12:21:32.869Z,15.80
2022-10-18T12:24:11.147Z,15.80
2022-10-18T12:26:38.551Z,15.70
2022-10-18T12:29:27.004Z,15.60
2022-10-18T12:32:04.074Z,15.60
2022-10-18T12:34:43.113Z,15.60
2022-10-18T12:37:10.150Z,15.50
2022-10-18T12:40:08.711Z,15.50
2022-10-18T12:42:42.861Z,15.50
2022-10-18T12:45:26.740Z,15.40
2022-10-18T12:47:55.013Z,15.30
2022-10-18T12:50:37.451Z,15.40
2022-10-18T12:53:10.279Z,15.40
2022-10-18T12:55:39.973Z,15.40
2022-10-18T12:58:22.625Z,15.40
2022-10-18T13:00:49.425Z,15.40
2022-10-18T13:03:19.497Z,15.40
2022-10-18T13:05:54.846Z,15.40
2022-10-18T13:08:31.649Z,15.40
2022-10-18T13:11:10.411Z,15.30
2022-10-18T13:14:01.610Z,15.30
2022-10-18T13:16:56.319Z,15.30
2022-10-18T13:19:42.086Z,15.30
2022-10-18T13:22:24.335Z,15.30
2022-10-18T13:25:05.924Z,15.30
2022-10-18T13:28:01.858Z,15.20
2022-10-18T13:31:06.959Z,15.30
2022-10-18T13:33:39.568Z,15.30
2022-10-18T13:36:22.747Z,15.20
2022-10-18T13:38:57.795Z,15.10
2022-10-18T13:41:31.443Z,15.10
2022-10-18T13:44:13.236Z,15.10
2022-10-18T13:46:39.970Z,15.10
2022-10-18T13:49:25.531Z,15.00
2022-10-18T13:52:10.934Z,14.90
2022-10-18T13:54:43.812Z,15.00
2022-10-18T13:57:30.723Z,14.90
2022-10-18T14:00:16.284Z,14.80
2022-10-18T14:02:56.919Z,14.90
2022-10-18T14:05:38.609Z,14.80
2022-10-18T14:08:26.224Z,14.80
2022-10-18T14:11:19.141Z,14.70
2022-10-18T14:14:04.527Z,14.70
2022-10-18T14:16:37.261Z,14.70
2022-10-18T14:19:16.250Z,14.70
2022-10-18T14:21:45.032Z,14.60
2022-10-18T14:24:20.611Z,14.50
2022-10-18T14:26:47.425Z,14.50
2022-10-18T14:29:19.267Z,14.40
2022-10-18T14:31:52.061Z,14.40
2022-10-18T14:34:18.895Z,14.40
2022-10-18T14:36:47.475Z,14.40
2022-10-18T14:39:19.270Z,14.30
2022-10-18T14:41:54.039Z,14.30
2022-10-18T14:44:24.648Z,14.20
2022-10-18T14:46:58.648Z,14.10
2022-10-18T14:49:25.537Z,14.10
2022-10-18T14:51:53.855Z,14.10
2022-10-18T14:54:30.701Z,14.00
2022-10-18T14:56:59.452Z,14.00
2022-10-18T14:59:46.936Z,13.90
2022-10-18T15:02:18.032Z,13.90
2022-10-18T15:04:46.078Z,13.90
2022-10-18T15:07:14.032Z,13.80
2022-10-18T15:09:41.096Z,13.80
2022-10-18T15:12:08.379Z,13.70
2022-10-18T15:14:35.785Z,13.70
2022-10-18T15:17:04.635Z,13.60
2022-10-18T15:19:33.343Z,13.40
2022-10-18T15:25:03.413Z,13.30
2022-10-18T15:27:32.448Z,13.30
2022-10-18T15:30:05.808Z,13.30
2022-10-18T15:32:32.847Z,13.30
2022-10-18T15:35:13.610Z,13.20
2022-10-18T15:37:41.833Z,13.30
2022-10-18T15:40:23.467Z,13.30
2022-10-18T15:42:51.046Z,13.30
2022-10-18T15:45:23.981Z,13.20
2022-10-18T15:48:20.213Z,13.10
2022-10-18T15:50:48.334Z,13.00
2022-10-18T15:53:21.002Z,13.00
2022-10-18T15:56:14.077Z,13.00
2022-10-18T15:58:42.409Z,12.90
2022-10-18T16:01:20.437Z,13.00
2022-10-18T16:03:47.630Z,13.00
2022-10-18T16:06:18.062Z,12.90
2022-10-18T16:08:50.061Z,12.80
2022-10-18T16:11:19.081Z,12.70
2022-10-18T16:13:45.918Z,12.70
2022-10-18T16:16:14.310Z,12.60
2022-10-18T16:18:41.104Z,12.60
2022-10-18T16:21:15.713Z,12.50
2022-10-18T16:23:42.493Z,12.40
2022-10-18T16:26:10.304Z,12.60
2022-10-18T16:28:37.724Z,12.50
2022-10-18T16:31:04.790Z,12.40
2022-10-18T16:33:31.562Z,12.40
2022-10-18T16:35:58.700Z,12.30
2022-10-18T16:38:34.077Z,12.30
2022-10-18T16:41:05.375Z,12.50
2022-10-18T16:43:32.674Z,12.40
2022-10-18T16:45:59.595Z,12.40
2022-10-18T16:48:26.876Z,12.30
2022-10-18T16:50:54.452Z,12.20
2022-10-18T16:53:23.944Z,12.30
2022-10-18T16:56:00.744Z,12.30
2022-10-18T16:58:28.798Z,12.40
2022-10-18T17:00:55.803Z,12.60
2022-10-18T17:03:22.763Z,12.50
2022-10-18T17:05:49.710Z,12.70
2022-10-18T17:08:26.386Z,12.70
2022-10-18T17:10:54.829Z,12.70
2022-10-18T17:13:22.290Z,12.60
2022-10-18T17:15:49.839Z,12.60
2022-10-18T17:18:18.586Z,12.60
2022-10-18T17:20:45.446Z,12.50
2022-10-18T17:23:12.241Z,12.40
2022-10-18T17:25:47.241Z,12.40
2022-10-18T17:28:24.920Z,12.30
2022-10-18T17:30:52.201Z,12.30
2022-10-18T17:33:18.959Z,12.40
2022-10-18T17:35:45.938Z,12.30
2022-10-18T17:38:12.750Z,12.20
2022-10-18T17:40:40.317Z,12.10
2022-10-18T17:43:07.426Z,12.00
2022-10-18T17:45:34.261Z,12.00
2022-10-18T17:48:01.028Z,12.00
2022-10-18T17:50:29.227Z,11.80
2022-10-18T17:52:57.055Z,11.80
2022-10-18T17:55:23.830Z,11.90
2022-10-18T17:57:51.979Z,11.80
2022-10-18T18:00:18.767Z,11.80
2022-10-18T18:02:46.765Z,11.80
2022-10-18T18:05:13.549Z,11.70
2022-10-18T18:07:40.351Z,11.70
2022-10-18T18:10:07.200Z,11.50
2022-10-18T18:12:34.285Z,11.40
2022-10-18T18:15:01.230Z,11.20
2022-10-18T18:17:34.087Z,11.30
2022-10-18T18:20:07.166Z,11.20
2022-10-18T18:22:36.004Z,11.20
2022-10-18T18:28:34.579Z,11.10
2022-10-18T18:31:05.480Z,11.00
2022-10-18T18:33:32.794Z,11.00
2022-10-18T18:35:59.643Z,11.00
2022-10-18T18:38:26.842Z,11.00
2022-10-18T18:41:10.033Z,11.00
2022-10-18T18:43:37.604Z,11.10
2022-10-18T18:46:04.655Z,11.20
2022-10-18T18:51:54.174Z,11.20
2022-10-18T18:54:22.180Z,11.50
2022-10-18T18:56:49.049Z,11.70
2022-10-18T18:59:15.918Z,11.70
2022-10-18T19:01:43.427Z,11.70
2022-10-18T19:04:10.408Z,11.70
2022-10-18T19:06:38.561Z,11.80
2022-10-18T19:09:13.088Z,11.50
2022-10-18T19:11:40.004Z,11.60
2022-10-18T19:14:07.610Z,11.60
2022-10-18T19:16:34.406Z,11.60
2022-10-18T19:19:06.223Z,11.70
2022-10-18T19:21:34.836Z,11.90
2022-10-18T19:24:01.948Z,12.00
2022-10-18T19:26:28.758Z,12.00
2022-10-18T19:28:55.931Z,12.00
2022-10-18T19:34:52.222Z,12.20
2022-10-18T19:37:19.309Z,12.30
2022-10-18T19:39:46.114Z,12.30
2022-10-18T19:42:15.758Z,12.30
2022-10-18T19:48:13.700Z,12.40
2022-10-18T19:50:40.498Z,12.60
2022-10-18T19:53:07.252Z,12.60
2022-10-18T19:55:34.414Z,12.60
2022-10-18T19:58:01.229Z,12.50
2022-10-18T20:00:28.044Z,12.50
2022-10-18T20:02:54.815Z,12.50
2022-10-18T20:05:21.610Z,12.60
2022-10-18T20:07:48.402Z,12.60
2022-10-18T20:10:15.217Z,12.70
2022-10-18T20:12:42.042Z,12.70
2022-10-18T20:15:09.208Z,12.60
2022-10-18T20:17:36.033Z,12.70
2022-10-18T20:20:02.797Z,12.60
2022-10-18T20:22:31.810Z,12.70
2022-10-18T20:24:58.917Z,12.60
2022-10-18T20:27:25.718Z,12.60
2022-10-18T20:29:52.553Z,12.70
2022-10-18T20:32:19.451Z,12.70
2022-10-18T20:34:46.205Z,12.70
2022-10-18T20:37:12.945Z,12.70
2022-10-18T20:39:40.649Z,12.70
2022-10-18T20:42:07.406Z,12.70
2022-10-18T20:44:34.226Z,12.70
2022-10-18T20:47:00.973Z,12.70
2022-10-18T20:49:27.753Z,12.70
2022-10-18T20:51:54.814Z,12.60
2022-10-18T20:54:21.709Z,12.50
2022-10-18T20:56:48.511Z,12.50
2022-10-18T20:59:15.562Z,12.50
2022-10-18T21:01:42.484Z,12.40
2022-10-18T21:04:09.854Z,12.30
2022-10-18T21:06:38.056Z,12.30
2022-10-18T21:09:06.393Z,12.30
2022-10-18T21:11:36.870Z,12.50
2022-10-18T21:14:04.294Z,12.50
2022-10-18T21:16:32.240Z,12.50
2022-10-18T21:19:03.212Z,12.50
2022-10-18T21:21:30.006Z,12.50
2022-10-18T21:23:56.794Z,12.50
2022-10-18T21:26:25.036Z,12.50
2022-10-18T21:28:52.767Z,12.50
2022-10-18T21:31:23.514Z,12.50
2022-10-18T21:33:54.677Z,12.50
2022-10-18T21:36:21.822Z,12.50
2022-10-18T21:38:49.179Z,12.50
2022-10-18T21:41:16.960Z,12.50
2022-10-18T21:43:44.943Z,12.50
2022-10-18T21:46:12.104Z,12.60
2022-10-18T21:48:43.085Z,12.50
2022-10-18T21:51:09.873Z,12.50
2022-10-18T21:53:36.874Z,12.60
2022-10-18T21:56:04.849Z,12.50
2022-10-18T21:58:31.653Z,12.50
2022-10-18T22:00:58.499Z,12.50
2022-10-18T22:03:25.366Z,12.60
2022-10-18T22:06:02.739Z,12.70
2022-10-18T22:08:29.534Z,12.80
2022-10-18T22:10:59.851Z,12.90
2022-10-18T22:13:27.560Z,12.80
2022-10-18T22:15:54.522Z,12.80
2022-10-18T22:18:21.322Z,12.80
2022-10-18T22:20:55.311Z,12.80
2022-10-18T22:23:22.116Z,12.80
2022-10-18T22:25:49.200Z,12.70
2022-10-18T22:28:16.199Z,12.70
2022-10-18T22:30:42.999Z,12.80
2022-10-18T22:33:09.773Z,12.80
2022-10-18T22:35:36.522Z,12.80
2022-10-18T22:38:03.440Z,12.80
2022-10-18T22:40:30.198Z,12.80
2022-10-18T22:42:56.980Z,12.90
2022-10-18T22:45:23.818Z,12.90
2022-10-18T22:47:50.611Z,12.80
2022-10-18T22:50:17.437Z,12.80
2022-10-18T22:52:44.271Z,12.70
2022-10-18T22:55:11.145Z,12.60
2022-10-18T22:57:37.937Z,12.50
2022-10-18T23:00:05.018Z,12.40
2022-10-18T23:02:32.018Z,12.20
2022-10-18T23:04:59.048Z,12.00
2022-10-18T23:07:25.815Z,11.90
2022-10-18T23:09:52.589Z,11.80
2022-10-18T23:12:19.371Z,11.80
2022-10-18T23:14:46.211Z,11.70
2022-10-18T23:17:12.984Z,11.70
2022-10-18T23:19:39.773Z,11.60
2022-10-18T23:22:06.532Z,11.70
2022-10-18T23:24:33.294Z,11.80
2022-10-18T23:27:00.056Z,11.90
2022-10-18T23:29:26.839Z,11.90
2022-10-18T23:31:53.800Z,11.90
2022-10-18T23:34:20.621Z,11.90
2022-10-18T23:36:47.409Z,11.80
2022-10-18T23:39:14.197Z,11.90
2022-10-18T23:41:40.999Z,11.70
2022-10-18T23:44:09.153Z,11.80
2022-10-18T23:46:35.899Z,11.70
2022-10-18T23:49:02.688Z,11.70
2022-10-18T23:51:29.584Z,11.60
2022-10-18T23:53:56.358Z,11.50
2022-10-18T23:56:23.150Z,11.70
2022-10-18T23:58:49.935Z,11.80
